Time;durP1;ratioP1;P1;durP2;ratioP2;P2;SDS_P1;SDS_P2;PMS_P1;PMS_P2;Temp;Humidity;BMP_temperature;BMP_pressure;BME280_temperature;BME280_humidity;BME280_pressure;Samples;Min_cycle;Max_cycle;Signal;HPM_P1;HPM_P2
2022/03/21 00:02:01;;;;;;;32.92;21.80;;;;;;;-1.96;68.90;98877.97;4954323;29;20054;-82
2022/03/21 00:04:27;;;;;;;33.20;21.23;;;;;;;-2.04;69.19;98881.75;4952898;28;20059;-83
2022/03/21 00:06:53;;;;;;;37.78;22.50;;;;;;;-2.22;69.62;98881.53;4972404;28;20051;-81
2022/03/21 00:09:19;;;;;;;35.60;21.50;;;;;;;-2.31;69.52;98873.97;4940488;29;20051;-82
2022/03/21 00:11:45;;;;;;;36.97;22.40;;;;;;;-2.26;69.59;98860.72;4972627;28;20183;-82
2022/03/21 00:14:11;;;;;;;40.78;23.08;;;;;;;-2.27;69.30;98846.78;4940732;29;20130;-81
2022/03/21 00:16:41;;;;;;;41.17;23.33;;;;;;;-2.32;69.49;98850.50;4957742;29;20055;-81
2022/03/21 00:19:07;;;;;;;40.72;24.17;;;;;;;-2.40;69.96;98850.78;4956707;29;20047;-79
2022/03/21 00:21:35;;;;;;;35.60;23.83;;;;;;;-2.45;69.77;98845.66;4940875;29;20047;-80
2022/03/21 00:24:03;;;;;;;34.28;22.30;;;;;;;-2.60;70.45;98855.81;4939994;29;20062;-80
2022/03/21 00:26:28;;;;;;;39.08;22.05;;;;;;;-2.65;70.52;98853.38;4956011;29;20058;-81
2022/03/21 00:28:55;;;;;;;38.60;23.48;;;;;;;-2.76;71.25;98840.66;4957232;29;20047;-80
2022/03/21 00:31:21;;;;;;;36.78;24.23;;;;;;;-2.66;71.18;98840.34;4939876;29;20596;-80
2022/03/21 00:33:48;;;;;;;42.83;23.25;;;;;;;-2.54;71.48;98838.16;4939868;29;20047;-78
2022/03/21 00:36:14;;;;;;;45.45;24.98;;;;;;;-2.44;71.51;98833.47;4971923;28;20046;-81
2022/03/21 00:38:42;;;;;;;36.92;23.58;;;;;;;-2.33;70.98;98843.53;4955953;29;20050;-80
2022/03/21 00:41:09;;;;;;;38.65;23.38;;;;;;;-2.27;71.09;98838.94;4924002;29;20499;-81
2022/03/21 00:43:35;;;;;;;39.80;23.35;;;;;;;-2.17;70.70;98822.91;4939836;29;20581;-81
2022/03/21 00:46:01;;;;;;;40.58;23.35;;;;;;;-2.07;70.43;98829.50;4971900;28;20068;-79
2022/03/21 00:48:30;;;;;;;35.08;22.23;;;;;;;-2.03;70.50;98823.22;4972294;28;20058;-80
2022/03/21 00:50:58;;;;;;;39.17;22.77;;;;;;;-2.13;70.37;98811.41;4955431;28;20054;-80
2022/03/21 00:53:24;;;;;;;37.65;22.98;;;;;;;-2.07;70.45;98816.41;4956567;29;20786;-79
2022/03/21 00:55:51;;;;;;;36.75;22.83;;;;;;;-2.12;70.03;98815.72;4960041;29;20051;-79
2022/03/21 00:58:17;;;;;;;36.35;22.63;;;;;;;-2.13;70.17;98827.13;4980744;28;20043;-79
2022/03/21 01:00:43;;;;;;;38.70;22.88;;;;;;;-2.15;70.36;98815.84;4959993;29;20055;-79
2022/03/21 01:03:09;;;;;;;42.42;23.33;;;;;;;-2.23;70.18;98822.19;4924554;29;20043;-79
2022/03/21 01:05:35;;;;;;;38.22;23.48;;;;;;;-2.18;70.15;98831.66;4923666;29;20043;-79
2022/03/21 01:08:02;;;;;;;43.90;24.65;;;;;;;-2.21;70.22;98817.78;4955749;29;20039;-80
2022/03/21 01:10:29;;;;;;;39.20;25.15;;;;;;;-2.14;70.20;98820.16;4956497;29;20043;-80
2022/03/21 01:12:56;;;;;;;40.22;24.05;;;;;;;-2.07;69.99;98813.78;4956203;29;20043;-79
2022/03/21 01:15:24;;;;;;;44.90;25.55;;;;;;;-1.98;70.17;98816.06;4923542;28;20039;-80
2022/03/21 01:17:50;;;;;;;40.88;25.40;;;;;;;-1.88;69.85;98808.69;4971696;28;20054;-79
2022/03/21 01:20:19;;;;;;;44.10;25.63;;;;;;;-1.83;69.62;98807.63;4954808;29;20043;-81
2022/03/21 01:22:46;;;;;;;42.53;25.85;;;;;;;-1.77;69.85;98802.16;4956582;29;20043;-81
2022/03/21 01:25:13;;;;;;;41.67;23.67;;;;;;;-1.76;69.68;98785.53;4938633;29;20063;-80
2022/03/21 01:27:40;;;;;;;59.67;26.42;;;;;;;-1.61;69.33;98799.78;4920070;29;20040;-78
2022/03/21 01:30:09;;;;;;;40.15;24.95;;;;;;;-1.54;68.99;98788.16;4920518;29;20047;-80
2022/03/21 01:32:35;;;;;;;45.30;25.58;;;;;;;-1.48;68.98;98792.28;4935705;29;20130;-80
2022/03/21 01:35:02;;;;;;;45.42;23.15;;;;;;;-1.43;68.93;98787.69;4935799;29;20047;-79
2022/03/21 01:37:28;;;;;;;58.00;24.17;;;;;;;-1.41;68.73;98782.41;4919983;29;20380;-81
2022/03/21 01:39:54;;;;;;;46.55;23.85;;;;;;;-1.44;68.55;98782.53;4919681;29;20042;-81
2022/03/21 01:42:20;;;;;;;37.05;25.30;;;;;;;-1.54;68.28;98779.44;4919983;29;20060;-78
2022/03/21 01:44:50;;;;;;;51.17;23.77;;;;;;;-1.53;68.51;98773.28;4952153;29;20591;-79
2022/03/21 01:47:17;;;;;;;39.55;23.83;;;;;;;-1.43;68.01;98776.38;4904558;29;20047;-82
2022/03/21 01:49:45;;;;;;;51.80;22.67;;;;;;;-1.51;68.36;98766.19;4904171;29;20043;-79
2022/03/21 01:52:11;;;;;;;45.08;22.90;;;;;;;-1.45;68.17;98767.72;4951869;28;20499;-81
2022/03/21 01:57:22;;;;;;;43.03;22.02;;;;;;;-1.37;68.01;98758.63;4935412;29;20046;-81
2022/03/21 01:59:49;;;;;;;41.72;21.92;;;;;;;-1.34;67.88;98758.50;4903779;29;20455;-80
2022/03/21 02:02:15;;;;;;;46.72;22.38;;;;;;;-1.46;67.97;98738.03;4935100;29;20044;-78
2022/03/21 02:04:42;;;;;;;46.20;21.35;;;;;;;-1.42;67.85;98744.88;4935236;29;20052;-81
2022/03/21 02:07:08;;;;;;;41.40;22.50;;;;;;;-1.37;67.33;98742.03;4920750;29;20415;-80
2022/03/21 02:09:35;;;;;;;46.60;23.75;;;;;;;-1.39;67.33;98729.00;4921426;29;20094;-81
2022/03/21 02:12:01;;;;;;;50.45;21.48;;;;;;;-1.40;67.44;98732.53;4935217;29;20043;-82
2022/03/21 02:14:28;;;;;;;34.97;19.95;;;;;;;-1.43;67.69;98732.66;4919226;29;20147;-78
2022/03/21 02:16:54;;;;;;;37.38;19.88;;;;;;;-1.30;67.56;98733.84;4919045;29;20050;-79
2022/03/21 02:19:19;;;;;;;34.88;19.05;;;;;;;-1.28;67.34;98726.81;4903299;29;20047;-82
2022/03/21 02:21:52;;;;;;;56.17;20.30;;;;;;;-1.17;66.98;98730.72;4918750;29;20074;-80
2022/03/21 02:24:23;;;;;;;39.95;20.13;;;;;;;-1.15;66.67;98734.13;4936029;29;20146;-80
2022/03/21 02:26:52;;;;;;;32.78;20.85;;;;;;;-1.14;66.80;98735.84;4934714;29;20044;-80
2022/03/21 02:29:20;;;;;;;37.58;19.50;;;;;;;-1.14;66.75;98727.97;4918224;29;20440;-80
2022/03/21 02:31:48;;;;;;;31.52;17.00;;;;;;;-1.20;66.85;98725.59;4950725;29;20567;-80
2022/03/21 02:34:13;;;;;;;45.53;21.27;;;;;;;-1.13;66.34;98717.44;4934612;29;20190;-80
2022/03/21 02:36:41;;;;;;;27.55;16.23;;;;;;;-1.05;66.38;98706.63;4950387;29;20051;-81
2022/03/21 02:39:07;;;;;;;30.58;18.92;;;;;;;-1.02;66.79;98701.22;4902569;29;20581;-79
2022/03/21 02:41:33;;;;;;;36.10;19.40;;;;;;;-1.01;66.29;98689.81;4919687;29;20047;-79
2022/03/21 02:43:59;;;;;;;34.90;18.48;;;;;;;-0.93;66.51;98689.47;4935880;29;20051;-80
2022/03/21 02:46:26;;;;;;;41.60;18.38;;;;;;;-0.92;66.57;98683.31;4918462;29;20047;-81
2022/03/21 02:48:54;;;;;;;31.73;20.00;;;;;;;-0.96;66.55;98685.22;4918893;29;20130;-81
2022/03/21 02:51:21;;;;;;;40.22;19.20;;;;;;;-0.95;66.45;98681.66;4935493;29;20124;-80
2022/03/21 02:53:51;;;;;;;28.55;19.10;;;;;;;-0.93;66.66;98682.47;4902737;29;20051;-82
2022/03/21 02:56:20;;;;;;;37.90;20.15;;;;;;;-0.89;66.13;98681.41;4950275;29;20058;-81
2022/03/21 02:58:49;;;;;;;31.00;18.98;;;;;;;-0.85;66.42;98677.72;4902926;29;20462;-80
2022/03/21 03:01:17;;;;;;;32.15;19.75;;;;;;;-0.81;65.96;98673.19;4934178;29;20039;-79
2022/03/21 03:03:45;;;;;;;35.10;19.20;;;;;;;-0.71;65.76;98678.84;4934331;29;20381;-77
2022/03/21 03:06:11;;;;;;;29.48;18.80;;;;;;;-0.65;65.91;98686.47;4950583;29;20053;-80
2022/03/21 03:08:39;;;;;;;33.75;20.95;;;;;;;-0.61;65.75;98669.66;4935555;29;20130;-78
2022/03/21 03:11:05;;;;;;;33.05;18.85;;;;;;;-0.53;65.39;98673.66;4918479;29;20056;-80
2022/03/21 03:13:31;;;;;;;31.65;19.98;;;;;;;-0.51;64.99;98670.94;4934290;29;20047;-79
2022/03/21 03:15:57;;;;;;;31.13;20.23;;;;;;;-0.59;64.55;98666.06;4935533;29;20046;-81
2022/03/21 03:18:24;;;;;;;31.05;19.58;;;;;;;-0.66;64.66;98663.78;4918272;29;20102;-80
2022/03/21 03:20:55;;;;;;;37.60;19.83;;;;;;;-0.74;64.34;98653.63;4917987;29;20048;-78
2022/03/21 03:23:22;;;;;;;34.33;20.55;;;;;;;-0.85;64.96;98643.63;4918196;29;20063;-80
2022/03/21 03:25:58;;;;;;;51.88;21.50;;;;;;;-0.88;65.41;98640.28;4933892;29;20110;-80
2022/03/21 03:28:24;;;;;;;27.67;18.98;;;;;;;-0.77;64.93;98632.78;4933976;29;20062;-80
2022/03/21 03:30:51;;;;;;;39.60;18.63;;;;;;;-0.76;64.81;98627.44;4935254;29;20056;-83
2022/03/21 03:33:17;;;;;;;34.83;20.38;;;;;;;-0.76;64.60;98618.72;4934553;29;20098;-87
2022/03/21 03:35:43;;;;;;;36.72;18.70;;;;;;;-0.51;66.49;98628.94;4949911;29;20079;-89
2022/03/21 03:38:09;;;;;;;25.00;16.85;;;;;;;-0.45;65.85;98618.19;4902917;29;20397;-78
2022/03/21 03:40:35;;;;;;;22.58;15.30;;;;;;;-0.41;65.65;98614.47;4938074;29;20462;-79
2022/03/21 03:43:01;;;;;;;24.00;13.30;;;;;;;-0.45;65.61;98615.53;4938556;29;20130;-79
2022/03/21 03:45:27;;;;;;;17.65;10.80;;;;;;;-0.58;66.76;98614.41;4937569;29;20131;-81
2022/03/21 03:47:54;;;;;;;19.33;11.18;;;;;;;-0.59;66.90;98589.94;4953567;29;20130;-80
2022/03/21 03:50:20;;;;;;;18.90;11.70;;;;;;;-0.53;67.00;98587.03;4921775;29;20043;-79
2022/03/21 03:52:47;;;;;;;18.27;11.95;;;;;;;-0.38;66.95;98593.31;4937917;29;20051;-81
2022/03/21 03:55:15;;;;;;;19.88;11.05;;;;;;;-0.39;66.77;98591.59;4922197;29;20072;-80
2022/03/21 03:57:41;;;;;;;20.60;11.27;;;;;;;-0.35;66.59;98595.78;4891079;29;20055;-79
2022/03/21 04:00:08;;;;;;;27.98;11.80;;;;;;;-0.23;66.76;98585.63;4937662;29;20047;-81
2022/03/21 04:05:23;;;;;;;15.75;10.82;;;;;;;-0.05;66.11;98579.47;4938349;29;20186;-81
2022/03/21 04:07:50;;;;;;;18.50;11.07;;;;;;;-0.03;65.93;98569.75;4936860;29;20538;-80
2022/03/21 04:10:16;;;;;;;17.92;10.68;;;;;;;0.03;65.78;98569.44;4938234;29;20058;-79
2022/03/21 04:12:46;;;;;;;17.65;10.80;;;;;;;0.13;67.22;98562.81;4921738;29;20043;-80
2022/03/21 04:15:12;;;;;;;16.13;10.23;;;;;;;0.17;65.93;98566.97;4953085;29;20096;-82
2022/03/21 04:17:38;;;;;;;19.60;11.27;;;;;;;0.29;65.62;98576.00;4921208;29;20090;-80
2022/03/21 04:20:05;;;;;;;19.60;10.93;;;;;;;0.34;65.19;98565.25;4905405;29;20492;-79
2022/03/21 04:22:33;;;;;;;18.25;9.75;;;;;;;0.29;64.91;98567.28;4921054;29;20051;-82
2022/03/21 04:24:58;;;;;;;19.65;10.77;;;;;;;0.60;65.67;98567.44;4921277;29;20055;-88
2022/03/21 04:27:24;;;;;;;18.90;10.50;;;;;;;0.94;65.54;98560.34;4940098;29;20073;-83
2022/03/21 04:29:50;;;;;;;15.32;10.30;;;;;;;1.45;64.07;98558.47;4951078;29;20051;-80
2022/03/21 04:32:16;;;;;;;15.27;9.27;;;;;;;1.83;62.37;98560.72;4970872;28;20539;-83
2022/03/21 04:34:42;;;;;;;12.85;8.93;;;;;;;1.98;61.22;98559.84;4921816;29;20054;-79
2022/03/21 04:37:08;;;;;;;14.52;8.48;;;;;;;2.06;60.48;98544.44;4938205;29;20492;-84
2022/03/21 04:39:34;;;;;;;12.13;6.70;;;;;;;2.21;60.31;98541.84;4937601;29;20087;-84
2022/03/21 04:42:00;;;;;;;12.07;7.45;;;;;;;2.15;60.43;98549.19;4954498;29;20055;-82
2022/03/21 04:44:26;;;;;;;14.60;6.68;;;;;;;2.28;60.69;98532.66;4968049;29;20043;-80
2022/03/21 04:46:52;;;;;;;27.58;6.75;;;;;;;2.68;60.01;98550.44;4949959;29;20056;-82
2022/03/21 04:49:18;;;;;;;10.60;6.15;;;;;;;2.96;58.84;98559.28;4939735;29;20040;-82
2022/03/21 04:51:44;;;;;;;11.05;5.85;;;;;;;3.07;58.95;98562.13;4960531;28;20523;-84
2022/03/21 04:54:10;;;;;;;12.35;6.30;;;;;;;2.96;59.06;98569.84;4954620;29;20500;-80
2022/03/21 04:56:36;;;;;;;9.13;5.35;;;;;;;3.04;59.11;98557.03;4937323;29;20044;-79
2022/03/21 04:59:02;;;;;;;13.45;5.90;;;;;;;3.03;58.60;98555.34;4952395;29;20052;-80
2022/03/21 05:01:28;;;;;;;7.55;5.43;;;;;;;3.12;58.66;98562.69;4936903;29;20036;-78
2022/03/21 05:03:55;;;;;;;7.70;5.35;;;;;;;2.97;58.68;98553.09;4951212;29;20043;-75
2022/03/21 05:06:21;;;;;;;14.27;5.75;;;;;;;2.94;59.20;98563.84;4951354;29;20051;-81
2022/03/21 05:08:48;;;;;;;8.05;5.60;;;;;;;2.76;60.10;98557.88;4936417;29;20046;-78
2022/03/21 05:11:13;;;;;;;9.25;5.63;;;;;;;2.60;61.34;98562.38;4937374;29;20518;-80
2022/03/21 05:13:39;;;;;;;16.70;5.65;;;;;;;2.36;62.99;98554.97;4951878;29;20074;-80
2022/03/21 05:16:05;;;;;;;8.68;5.07;;;;;;;2.38;63.94;98563.66;4952014;29;20046;-80
2022/03/21 05:18:34;;;;;;;7.55;5.10;;;;;;;2.24;64.97;98560.13;4919758;29;20511;-82
2022/03/21 05:21:01;;;;;;;8.13;5.32;;;;;;;2.02;65.67;98565.81;4935854;29;20468;-83
2022/03/21 05:31:40;;;;;;;5.15;2.55;;;;;;;0.48;76.43;98576.78;4937417;29;20051;-80
2022/03/21 05:36:50;;;;;;;2.42;2.13;;;;;;;0.10;78.63;98586.59;4935174;29;20072;-76
2022/03/21 05:39:17;;;;;;;27.50;3.60;;;;;;;0.00;79.10;98590.63;4934992;29;20047;-80
2022/03/21 05:41:43;;;;;;;3.97;2.20;;;;;;;0.00;79.81;98630.03;4951164;29;20047;-80
2022/03/21 05:44:11;;;;;;;3.00;2.25;;;;;;;0.22;78.95;98609.63;4935182;29;20055;-79
2022/03/21 05:46:37;;;;;;;3.13;2.17;;;;;;;0.29;76.54;98588.31;4935277;29;20423;-80
2022/03/21 05:49:04;;;;;;;6.28;1.80;;;;;;;0.67;74.28;98600.34;4934083;29;20083;-82
2022/03/21 05:51:33;;;;;;;8.57;2.58;;;;;;;0.92;72.78;98593.81;4941479;28;20076;-79
2022/03/21 05:54:02;;;;;;;3.03;2.53;;;;;;;0.97;71.60;98597.88;4939018;29;20520;-85
2022/03/21 05:56:29;;;;;;;2.97;2.35;;;;;;;1.09;71.67;98591.16;4938470;29;20051;-86
2022/03/21 05:58:56;;;;;;;1.92;1.63;;;;;;;1.49;70.71;98590.75;4957753;29;20098;-82
2022/03/21 06:01:23;;;;;;;3.17;2.60;;;;;;;1.90;69.58;98577.91;4925676;29;20040;-82
2022/03/21 06:03:52;;;;;;;6.18;3.00;;;;;;;1.87;68.50;98614.97;4937679;29;20497;-78
2022/03/21 06:06:19;;;;;;;2.90;2.05;;;;;;;1.89;66.60;98586.75;4955784;29;20118;-80
2022/03/21 06:08:45;;;;;;;4.82;2.53;;;;;;;1.91;65.40;98580.44;4955140;29;20576;-79
2022/03/21 06:11:12;;;;;;;3.72;2.58;;;;;;;2.06;63.70;98585.78;4923088;29;20050;-80
2022/03/21 06:13:40;;;;;;;2.85;2.17;;;;;;;2.23;61.77;98571.63;4971549;28;20050;-76
2022/03/21 06:16:07;;;;;;;2.60;2.15;;;;;;;2.50;60.77;98572.63;4940107;29;20098;-80
2022/03/21 06:18:34;;;;;;;3.00;2.08;;;;;;;2.32;59.59;98548.19;4923936;29;20050;-78
2022/03/21 06:21:01;;;;;;;4.07;3.15;;;;;;;2.49;60.79;98570.94;4939514;29;20047;-81
2022/03/21 06:23:27;;;;;;;3.17;2.60;;;;;;;3.07;66.11;98577.97;4965247;29;20055;-84
2022/03/21 06:25:54;;;;;;;3.65;2.33;;;;;;;4.17;64.32;98574.50;4987253;28;20078;-79
2022/03/21 06:28:21;;;;;;;3.33;1.75;;;;;;;4.10;54.32;98572.28;4982150;28;20040;-84
2022/03/21 06:30:50;;;;;;;5.28;2.10;;;;;;;3.47;54.71;98564.91;4947614;29;20050;-79
2022/03/21 06:33:17;;;;;;;5.35;1.83;;;;;;;3.21;54.56;98584.19;4946733;28;20083;-82
2022/03/21 06:35:43;;;;;;;10.35;1.90;;;;;;;2.99;54.01;98553.81;4935329;29;20044;-83
2022/03/21 06:38:10;;;;;;;1.70;1.45;;;;;;;2.70;54.17;98560.88;4952310;29;20404;-83
2022/03/21 06:40:38;;;;;;;2.97;1.38;;;;;;;2.46;54.21;98571.13;4924539;29;20040;-88
2022/03/21 06:43:04;;;;;;;3.30;1.90;;;;;;;2.28;54.37;98566.94;4953192;29;20055;-87
2022/03/21 06:45:29;;;;;;;1.42;1.25;;;;;;;1.92;54.12;98560.22;4932697;29;20044;-82
2022/03/21 06:47:57;;;;;;;8.00;1.42;;;;;;;1.77;54.59;98592.69;4917140;29;20468;-83
2022/03/21 06:50:22;;;;;;;3.63;1.60;;;;;;;1.90;54.86;98578.75;4916654;29;20043;-83
2022/03/21 06:52:49;;;;;;;4.45;1.33;;;;;;;2.01;54.05;98572.88;4917100;29;20583;-79
2022/03/21 06:55:24;;;;;;;5.47;2.13;;;;;;;2.08;53.95;98582.13;4916218;29;20049;-81
2022/03/21 06:57:50;;;;;;;8.38;1.92;;;;;;;2.24;54.07;98566.25;4915665;29;20048;-84
2022/03/21 07:00:17;;;;;;;2.60;1.48;;;;;;;2.52;53.56;98577.81;4919022;29;20055;-83
2022/03/21 07:02:44;;;;;;;3.85;1.70;;;;;;;2.51;52.87;98562.94;4956167;28;20104;-83
2022/03/21 07:05:12;;;;;;;7.80;2.17;;;;;;;2.61;52.83;98572.84;4931763;29;20051;-85
2022/03/21 07:07:38;;;;;;;1.25;1.10;;;;;;;2.63;51.34;98583.28;4931660;29;20488;-78
2022/03/21 07:10:05;;;;;;;3.90;1.42;;;;;;;2.48;51.71;98561.31;4916856;29;20056;-82
2022/03/21 07:12:34;;;;;;;2.97;1.20;;;;;;;2.59;51.70;98561.50;4918262;29;20055;-82
2022/03/21 07:15:00;;;;;;;4.60;1.23;;;;;;;2.76;51.18;98592.19;4892180;29;20465;-80
2022/03/21 07:17:26;;;;;;;1.27;1.17;;;;;;;2.80;50.40;98590.22;4920326;29;20721;-83
2022/03/21 07:19:52;;;;;;;5.03;1.42;;;;;;;2.88;49.74;98580.03;4935513;29;20119;-83
2022/03/21 07:22:18;;;;;;;1.67;1.35;;;;;;;3.19;48.10;98586.06;4934928;29;20099;-78
2022/03/21 07:24:44;;;;;;;3.55;1.50;;;;;;;3.67;47.53;98586.56;4920068;29;20056;-80
2022/03/21 07:27:12;;;;;;;3.47;1.45;;;;;;;4.23;46.81;98579.38;4919923;29;20047;-78
2022/03/21 07:29:38;;;;;;;7.30;1.45;;;;;;;4.39;43.31;98598.56;4919318;29;20076;-79
2022/03/21 07:32:04;;;;;;;5.28;1.50;;;;;;;4.40;44.21;98597.66;4920108;29;20044;-85
2022/03/21 07:34:30;;;;;;;2.20;1.20;;;;;;;4.28;43.23;98588.69;4935126;29;20083;-84
2022/03/21 07:36:56;;;;;;;3.55;1.42;;;;;;;4.59;43.69;98608.69;4934845;29;20535;-79
2022/03/21 07:39:22;;;;;;;4.13;1.50;;;;;;;4.79;42.00;98593.25;4935828;29;20131;-86
2022/03/21 07:41:48;;;;;;;2.78;1.23;;;;;;;4.93;41.31;98579.91;4919522;29;20040;-85
2022/03/21 07:47:17;;;;;;;2.65;1.40;;;;;;;4.94;40.81;98596.66;4924201;29;20044;-83
2022/03/21 07:47:20;;;;;;;2.22;1.15;;;;;;;4.45;42.51;98613.22;4905861;29;20075;-82
2022/03/21 07:49:55;;;;;;;4.90;1.95;;;;;;;3.88;44.85;98630.16;4913495;29;20051;-88
2022/03/21 07:52:22;;;;;;;2.85;1.35;;;;;;;3.87;45.51;98615.22;4943361;29;20044;-82
2022/03/21 07:54:52;;;;;;;3.17;1.45;;;;;;;4.07;44.21;98643.03;4926932;29;20051;-83
2022/03/21 07:57:20;;;;;;;2.78;1.50;;;;;;;3.67;44.04;98605.06;4925489;29;20091;-85
2022/03/21 07:59:46;;;;;;;1.80;0.93;;;;;;;3.69;43.46;98627.81;4905744;29;20044;-86
2022/03/21 08:02:12;;;;;;;3.13;1.17;;;;;;;3.84;43.21;98610.13;4919927;29;20043;-84
2022/03/21 08:04:39;;;;;;;3.40;1.15;;;;;;;4.39;43.13;98615.28;4921339;29;20063;-85
2022/03/21 08:07:05;;;;;;;2.83;1.00;;;;;;;4.46;41.39;98607.81;4902746;29;20512;-85
2022/03/21 08:09:30;;;;;;;4.35;1.52;;;;;;;4.10;41.92;98611.09;4933837;29;20040;-83
2022/03/21 08:12:03;;;;;;;2.63;1.20;;;;;;;4.08;40.95;98605.91;4933924;29;20043;-85
2022/03/21 08:14:29;;;;;;;1.70;1.40;;;;;;;4.06;41.47;98615.75;4933021;29;20056;-86
2022/03/21 08:16:55;;;;;;;5.75;1.52;;;;;;;3.79;41.54;98617.50;4938228;29;20046;-83
2022/03/21 08:19:24;;;;;;;3.53;1.20;;;;;;;3.64;42.69;98609.59;4931480;29;20039;-87
2022/03/21 08:21:53;;;;;;;3.55;1.23;;;;;;;3.78;42.87;98621.09;4930460;29;20043;-86
2022/03/21 08:24:22;;;;;;;8.02;1.35;;;;;;;3.67;42.33;98644.72;4946346;28;20175;-85
2022/03/21 08:26:50;;;;;;;2.97;1.10;;;;;;;3.42;42.36;98633.03;4928685;29;20102;-85
2022/03/21 08:29:16;;;;;;;2.58;1.30;;;;;;;3.53;41.64;98630.56;4916553;29;20047;-84
2022/03/21 08:31:43;;;;;;;3.08;1.20;;;;;;;3.61;40.60;98625.66;4935034;29;20051;-82
2022/03/21 08:34:09;;;;;;;3.45;1.38;;;;;;;3.72;40.28;98626.75;4956566;29;20075;-82
2022/03/21 08:36:35;;;;;;;3.75;1.30;;;;;;;3.69;40.79;98633.13;4963550;28;20134;-84
2022/03/21 08:39:02;;;;;;;4.07;1.20;;;;;;;3.99;40.90;98634.75;4930343;29;20047;-83
2022/03/21 08:41:28;;;;;;;1.77;1.17;;;;;;;3.87;39.67;98646.94;4914960;29;20035;-85
2022/03/21 08:43:54;;;;;;;3.85;1.30;;;;;;;4.01;39.93;98646.91;4963140;28;20102;-86
2022/03/21 08:46:21;;;;;;;5.10;1.45;;;;;;;4.28;40.57;98624.91;4914549;29;20495;-87
2022/03/21 08:51:33;;;;;;;3.97;1.75;;;;;;;4.86;39.90;98644.84;4957017;28;20458;-78
2022/03/21 08:53:58;;;;;;;5.05;1.55;;;;;;;5.24;38.95;98646.66;4956892;29;20550;-78
2022/03/21 08:56:25;;;;;;;1.27;0.90;;;;;;;4.73;38.99;98651.91;4957074;29;20134;-80
2022/03/21 08:58:52;;;;;;;2.38;1.10;;;;;;;4.86;38.68;98645.69;4939598;29;20047;-80
2022/03/21 09:01:17;;;;;;;3.08;1.35;;;;;;;4.87;38.88;98641.22;4939519;29;20491;-81
2022/03/21 09:03:43;;;;;;;2.65;1.17;;;;;;;5.05;38.79;98642.63;4956569;29;20122;-81
2022/03/21 09:06:10;;;;;;;2.63;1.30;;;;;;;5.05;38.44;98647.94;4955272;29;20499;-79
2022/03/21 09:08:37;;;;;;;3.58;1.13;;;;;;;5.15;38.85;98657.88;4955149;29;20541;-81
2022/03/21 09:11:04;;;;;;;2.78;1.42;;;;;;;5.20;39.02;98671.69;4939026;29;20043;-81
2022/03/21 09:13:31;;;;;;;1.42;0.75;;;;;;;5.19;38.34;98656.72;4956305;29;20043;-81
2022/03/21 09:15:57;;;;;;;2.78;1.83;;;;;;;5.70;38.21;98659.34;4939241;29;20047;-80
2022/03/21 09:18:22;;;;;;;2.42;1.23;;;;;;;6.28;37.40;98682.56;4939179;29;20058;-80
2022/03/21 09:20:48;;;;;;;2.67;1.27;;;;;;;6.21;37.37;98675.16;4956207;29;20197;-80
2022/03/21 09:23:14;;;;;;;4.25;0.85;;;;;;;5.94;37.97;98670.91;4939337;28;20043;-81
2022/03/21 09:25:40;;;;;;;4.18;1.30;;;;;;;5.67;38.98;98686.06;4955173;29;20404;-81
2022/03/21 09:28:06;;;;;;;1.83;1.10;;;;;;;5.63;39.50;98679.28;4938939;29;20520;-80
2022/03/21 09:30:33;;;;;;;2.90;1.50;;;;;;;5.59;39.54;98682.13;4971124;28;20095;-79
2022/03/21 09:32:59;;;;;;;3.15;1.00;;;;;;;5.81;40.52;98709.81;4954479;29;20077;-80
2022/03/21 09:35:25;;;;;;;5.13;0.63;;;;;;;5.33;41.28;98699.00;4938970;29;20043;-81
2022/03/21 09:37:51;;;;;;;1.88;1.00;;;;;;;4.84;43.04;98705.84;4938790;29;20582;-81
2022/03/21 09:40:20;;;;;;;5.78;1.48;;;;;;;4.79;43.24;98701.81;4936270;29;20131;-81
2022/03/21 09:42:47;;;;;;;3.97;1.10;;;;;;;5.04;42.42;98701.00;4936485;29;20055;-80
2022/03/21 09:45:14;;;;;;;4.57;1.10;;;;;;;5.14;40.94;98698.56;4919792;29;20102;-80
2022/03/21 09:50:35;;;;;;;1.95;1.00;;;;;;;5.42;39.42;98709.00;4936989;29;20051;-81
2022/03/21 09:53:04;;;;;;;3.25;1.10;;;;;;;5.27;39.54;98712.69;4935402;29;20406;-80
2022/03/21 09:55:31;;;;;;;6.35;1.30;;;;;;;4.91;40.19;98698.34;4935264;29;20414;-80
2022/03/21 09:57:57;;;;;;;1.23;1.10;;;;;;;4.94;40.17;98700.78;4903588;29;20086;-80
2022/03/21 10:00:25;;;;;;;5.50;1.20;;;;;;;4.36;40.30;98713.44;4935154;29;20095;-80
2022/03/21 10:02:56;;;;;;;2.92;1.30;;;;;;;4.41;40.68;98721.06;4936682;29;20122;-80
2022/03/21 10:05:38;;;;;;;6.03;1.20;;;;;;;4.78;40.09;98729.25;4936416;29;20052;-81
2022/03/21 10:08:26;;;;;;;1.95;1.30;;;;;;;4.96;39.85;98732.44;4903371;29;20504;-78
2022/03/21 10:11:05;;;;;;;2.85;1.13;;;;;;;4.46;40.75;98726.88;4951455;29;20048;-80
2022/03/21 10:13:41;;;;;;;3.00;1.23;;;;;;;4.62;41.04;98738.16;4935274;29;20190;-79
2022/03/21 10:16:13;;;;;;;2.03;1.40;;;;;;;4.51;41.59;98735.38;4936391;29;20102;-78
2022/03/21 10:18:58;;;;;;;5.60;1.30;;;;;;;4.58;41.20;98749.91;4935294;29;20078;-80
2022/03/21 10:21:26;;;;;;;2.40;1.20;;;;;;;4.90;40.95;98733.72;4936354;29;20403;-80
2022/03/21 10:24:07;;;;;;;3.22;1.05;;;;;;;5.45;39.70;98729.13;4936474;28;20106;-79
2022/03/21 10:26:41;;;;;;;0.60;0.60;;;;;;;5.26;39.56;98753.38;4919857;29;20040;-80
2022/03/21 10:29:10;;;;;;;2.33;1.25;;;;;;;5.27;39.99;98752.44;4950848;29;20063;-81
2022/03/21 10:31:40;;;;;;;4.03;1.20;;;;;;;5.40;39.31;98758.59;4927460;29;20051;-82
2022/03/21 10:34:17;;;;;;;2.40;0.82;;;;;;;4.22;40.63;98773.47;4900277;29;20044;-80
2022/03/21 10:37:11;;;;;;;2.25;0.70;;;;;;;3.34;43.71;98770.03;4931961;29;20527;-79
2022/03/21 10:39:40;;;;;;;1.02;0.90;;;;;;;2.66;47.60;98794.22;4915649;29;20048;-80
2022/03/21 10:42:08;;;;;;;1.23;0.88;;;;;;;2.81;49.95;98789.84;4931723;29;20054;-79
2022/03/21 10:44:34;;;;;;;3.63;1.23;;;;;;;4.05;47.31;98778.00;4916143;29;20492;-81
2022/03/21 10:47:03;;;;;;;3.25;1.27;;;;;;;4.75;44.85;98766.50;4915795;29;20048;-80
2022/03/21 10:49:43;;;;;;;1.15;0.70;;;;;;;4.85;43.94;98768.47;4915276;29;20048;-79
2022/03/21 10:52:16;;;;;;;3.15;1.00;;;;;;;4.72;43.59;98766.72;4916742;29;20099;-80
2022/03/21 10:54:50;;;;;;;4.07;1.17;;;;;;;4.72;42.52;98762.25;4917143;29;20067;-80
2022/03/21 10:57:36;;;;;;;3.65;1.08;;;;;;;4.54;42.38;98769.59;4915866;29;20048;-79
2022/03/21 11:00:17;;;;;;;2.90;0.90;;;;;;;3.82;42.84;98775.94;4916435;29;20083;-79
2022/03/21 11:03:17;;;;;;;2.75;1.15;;;;;;;3.32;43.72;98782.50;4915476;29;20496;-79
2022/03/21 11:05:46;;;;;;;3.20;1.30;;;;;;;2.95;44.55;98799.63;4916786;29;20052;-82
2022/03/21 11:08:16;;;;;;;5.78;1.40;;;;;;;3.65;43.21;98806.88;4931352;29;20073;-79
2022/03/21 11:10:43;;;;;;;3.53;1.13;;;;;;;4.28;41.55;98818.03;4899605;29;20096;-79
2022/03/21 11:13:10;;;;;;;5.93;1.20;;;;;;;4.36;42.34;98790.16;4916639;29;20052;-79
2022/03/21 11:15:37;;;;;;;3.72;1.65;;;;;;;4.39;43.00;98797.03;4916670;29;20075;-80
2022/03/21 11:18:05;;;;;;;2.78;1.40;;;;;;;4.69;42.73;98807.44;4915568;29;20043;-78
2022/03/21 11:20:31;;;;;;;3.63;1.20;;;;;;;4.72;42.32;98791.38;4915416;29;20136;-80
2022/03/21 11:22:58;;;;;;;2.05;0.88;;;;;;;4.25;42.72;98791.75;4915307;29;20040;-78
2022/03/21 11:25:29;;;;;;;0.95;0.90;;;;;;;3.57;43.76;98819.72;4933959;29;20059;-79
2022/03/21 11:28:09;;;;;;;3.65;0.93;;;;;;;3.24;45.58;98803.22;4934586;29;20407;-80
2022/03/21 11:31:10;;;;;;;5.63;0.95;;;;;;;2.99;45.79;98796.72;4935943;29;20134;-80
2022/03/21 11:33:40;;;;;;;7.60;1.48;;;;;;;3.30;46.62;98805.47;4934157;29;20149;-80
2022/03/21 11:36:09;;;;;;;4.10;1.33;;;;;;;3.91;44.74;98801.78;4902654;29;20047;-81
2022/03/21 11:38:41;;;;;;;5.55;1.65;;;;;;;4.59;43.47;98820.44;4935333;29;20040;-80
2022/03/21 11:41:21;;;;;;;4.10;1.52;;;;;;;4.86;42.61;98809.03;4965803;28;20077;-80
2022/03/21 11:44:05;;;;;;;3.38;1.20;;;;;;;4.47;43.23;98813.25;4934413;29;20403;-81
2022/03/21 11:46:38;;;;;;;5.53;1.58;;;;;;;4.42;43.04;98807.44;4935700;29;20047;-80
2022/03/21 11:49:16;;;;;;;5.45;1.60;;;;;;;4.81;42.19;98816.41;4934424;29;20499;-81
2022/03/21 11:51:43;;;;;;;3.72;1.35;;;;;;;4.91;41.90;98814.84;4949811;28;20490;-79
2022/03/21 11:54:36;;;;;;;4.82;1.60;;;;;;;5.60;40.22;98819.06;4933821;29;20047;-80
2022/03/21 11:57:07;;;;;;;2.85;1.33;;;;;;;5.75;40.49;98816.31;4934298;29;20098;-79
2022/03/21 11:59:33;;;;;;;6.32;1.92;;;;;;;6.56;39.43;98814.13;4935293;29;20477;-80